Franzen, Wisconsin
Current Conditions -  °F | °C
As of 8:15 AM on Sunday 21 Dec 2014 (Local Time) from KAIG Reporting Station
Moderate Fog Moderate Fog  
Wind Chill: -9°   Ceiling: 300
Heat Index: -3°   Visibility: 0.5mi
Dew Point: -3°   Wind: 10mph
Humidity: 100%   Direction: 150°SSE
Pressure: 30.04"   Gusts: NA
Location:  44.8179°N, 89.172°W
Report Text: KAIG 211415Z AUTO 15009KT 1/2SM FZFG OVC003 M03/M03 A3004 RMK AO2 T10321032
Loading
Personal Weather Stations






























Interactive Weather Map New forecast layout! Learn more

10-Day Weather Forecast

Advertisements
Track Severe Weather on mobile